Time;durP1;ratioP1;P1;durP2;ratioP2;P2;SDS_P1;SDS_P2;PMS_P1;PMS_P2;Temp;Humidity;BMP_temperature;BMP_pressure;BME280_temperature;BME280_humidity;BME280_pressure;Samples;Min_cycle;Max_cycle;Signal;HPM_P1;HPM_P2
2024/04/16 00:02:22;;;;;;;8.00;7.70;;;;;;;;;;5378319;26;20507;-89
2024/04/16 00:04:49;;;;;;;8.07;7.67;;;;;;;;;;5412447;26;20468;-92
2024/04/16 00:07:15;;;;;;;8.77;7.95;;;;;;;;;;5401409;26;20452;-90
2024/04/16 00:09:41;;;;;;;8.43;7.90;;;;;;;;;;5401375;26;20278;-90
2024/04/16 00:12:07;;;;;;;11.67;7.97;;;;;;;;;;5417391;26;20555;-90
2024/04/16 00:14:33;;;;;;;8.88;8.18;;;;;;;;;;5397442;26;20806;-92
2024/04/16 00:16:59;;;;;;;11.98;8.20;;;;;;;;;;5408073;26;20797;-90
2024/04/16 00:19:25;;;;;;;8.30;7.80;;;;;;;;;;5401812;26;20244;-91
2024/04/16 00:21:51;;;;;;;12.27;10.73;;;;;;;;;;5396718;26;21082;-89
2024/04/16 00:24:17;;;;;;;7.60;7.30;;;;;;;;;;5405838;26;20234;-89
2024/04/16 00:26:43;;;;;;;9.33;8.80;;;;;;;;;;5415459;26;20280;-90
2024/04/16 00:29:09;;;;;;;7.90;7.50;;;;;;;;;;5410916;26;20812;-90
2024/04/16 00:31:35;;;;;;;7.87;7.40;;;;;;;;;;5401934;26;20280;-90
2024/04/16 00:34:06;;;;;;;8.80;7.93;;;;;;;;;;5401050;26;21011;-90
2024/04/16 00:36:32;;;;;;;8.38;7.70;;;;;;;;;;5399186;26;20485;-91
2024/04/16 00:38:58;;;;;;;8.45;7.93;;;;;;;;;;5416690;26;20244;-90
2024/04/16 00:41:24;;;;;;;7.75;7.10;;;;;;;;;;5408190;26;20290;-91
2024/04/16 00:43:50;;;;;;;8.02;7.43;;;;;;;;;;5416800;26;20230;-91
2024/04/16 00:46:16;;;;;;;8.00;7.60;;;;;;;;;;5408833;26;20239;-88
2024/04/16 00:48:43;;;;;;;8.63;7.83;;;;;;;;;;5398275;26;20474;-87
2024/04/16 00:51:11;;;;;;;8.70;7.82;;;;;;;;;;5414323;26;20453;-93
2024/04/16 00:53:57;;;;;;;7.75;7.25;;;;;;;;;;5404683;26;20282;-94
2024/04/16 00:56:23;;;;;;;7.75;7.35;;;;;;;;;;5386081;26;20251;-85
2024/04/16 00:58:50;;;;;;;8.60;7.90;;;;;;;;;;5416865;26;20641;-89
2024/04/16 01:01:19;;;;;;;8.10;7.50;;;;;;;;;;5417172;26;20339;-89
2024/04/16 01:03:45;;;;;;;8.48;7.90;;;;;;;;;;5407773;26;20316;-89
2024/04/16 01:06:13;;;;;;;8.65;7.90;;;;;;;;;;5410850;26;20239;-89
2024/04/16 01:08:39;;;;;;;8.60;7.80;;;;;;;;;;5398974;26;20585;-90
2024/04/16 01:11:05;;;;;;;11.02;7.55;;;;;;;;;;5409214;26;20331;-90
2024/04/16 01:13:31;;;;;;;8.10;7.60;;;;;;;;;;5409429;26;20750;-89
2024/04/16 01:15:57;;;;;;;8.65;7.90;;;;;;;;;;5413167;26;20244;-90
2024/04/16 01:18:23;;;;;;;8.07;7.57;;;;;;;;;;5389920;26;20246;-92
2024/04/16 01:20:49;;;;;;;8.55;7.85;;;;;;;;;;5414106;26;20539;-90
2024/04/16 01:23:15;;;;;;;8.38;7.57;;;;;;;;;;5394935;26;20734;-89
2024/04/16 01:25:42;;;;;;;9.10;8.30;;;;;;;;;;5378598;26;20236;-88
2024/04/16 01:28:08;;;;;;;8.00;7.57;;;;;;;;;;5400844;26;20451;-88
2024/04/16 01:30:34;;;;;;;8.13;7.53;;;;;;;;;;5409911;26;20314;-90
2024/04/16 01:33:00;;;;;;;7.57;6.95;;;;;;;;;;5405574;26;20248;-89
2024/04/16 01:35:32;;;;;;;7.22;6.60;;;;;;;;;;5408252;26;20243;-93
2024/04/16 01:38:06;;;;;;;11.07;7.40;;;;;;;;;;5411588;26;20247;-94
2024/04/16 01:40:32;;;;;;;7.70;7.10;;;;;;;;;;5409187;26;20722;-90
2024/04/16 01:43:01;;;;;;;10.07;7.30;;;;;;;;;;5414428;26;20336;-91
2024/04/16 01:45:27;;;;;;;7.75;7.18;;;;;;;;;;5411183;26;20472;-93
2024/04/16 01:47:53;;;;;;;7.93;7.30;;;;;;;;;;5415170;26;20240;-92
2024/04/16 01:50:19;;;;;;;8.43;7.60;;;;;;;;;;5414887;26;20271;-89
2024/04/16 01:52:47;;;;;;;7.25;6.78;;;;;;;;;;5405586;26;20273;-92
2024/04/16 01:55:16;;;;;;;8.70;7.80;;;;;;;;;;5400373;26;20235;-89
2024/04/16 01:57:42;;;;;;;7.88;7.10;;;;;;;;;;5417331;26;20726;-86
2024/04/16 02:00:09;;;;;;;7.38;7.03;;;;;;;;;;5400288;26;20560;-86
2024/04/16 02:02:38;;;;;;;7.88;7.22;;;;;;;;;;5405570;26;20244;-86
2024/04/16 02:05:04;;;;;;;7.20;6.90;;;;;;;;;;5415824;26;20230;-87
2024/04/16 02:07:31;;;;;;;7.78;7.10;;;;;;;;;;5409881;26;20239;-88
2024/04/16 02:09:59;;;;;;;7.65;7.15;;;;;;;;;;5406960;26;20303;-87
2024/04/16 02:12:26;;;;;;;8.75;7.88;;;;;;;;;;5400921;26;20681;-86
2024/04/16 02:14:52;;;;;;;9.55;7.88;;;;;;;;;;5399084;26;20295;-87
2024/04/16 02:17:18;;;;;;;11.73;8.27;;;;;;;;;;5398035;26;20338;-87
2024/04/16 02:19:44;;;;;;;7.72;7.22;;;;;;;;;;5398218;26;20711;-87
2024/04/16 02:22:10;;;;;;;7.35;6.95;;;;;;;;;;5400308;26;20240;-85
2024/04/16 02:24:36;;;;;;;7.68;6.97;;;;;;;;;;5405453;26;20245;-86
2024/04/16 02:27:03;;;;;;;7.70;7.20;;;;;;;;;;5403877;26;20332;-86
2024/04/16 02:29:29;;;;;;;7.05;6.65;;;;;;;;;;5403461;26;20247;-88
2024/04/16 02:31:55;;;;;;;9.07;6.95;;;;;;;;;;5410697;26;20585;-88
2024/04/16 02:34:21;;;;;;;7.63;6.93;;;;;;;;;;5412385;26;20238;-87
2024/04/16 02:36:47;;;;;;;7.00;6.40;;;;;;;;;;5407008;26;20247;-88
2024/04/16 02:39:16;;;;;;;7.70;7.10;;;;;;;;;;5407899;26;20279;-88
2024/04/16 02:41:43;;;;;;;7.03;6.63;;;;;;;;;;5405146;26;20518;-88
2024/04/16 02:44:09;;;;;;;7.15;6.60;;;;;;;;;;5395658;26;20250;-88
2024/04/16 02:46:35;;;;;;;8.20;7.72;;;;;;;;;;5405902;26;20247;-88
2024/04/16 02:49:01;;;;;;;7.90;7.20;;;;;;;;;;5405470;26;20646;-87
2024/04/16 02:51:27;;;;;;;8.98;6.50;;;;;;;;;;5423868;26;20222;-87
2024/04/16 02:53:53;;;;;;;7.18;6.85;;;;;;;;;;5403084;26;20248;-88
2024/04/16 02:56:19;;;;;;;10.95;6.55;;;;;;;;;;5396929;26;20246;-87
2024/04/16 02:58:45;;;;;;;7.20;6.50;;;;;;;;;;5404450;26;20304;-86
2024/04/16 03:01:11;;;;;;;7.55;6.85;;;;;;;;;;5408267;26;20327;-86
2024/04/16 03:03:38;;;;;;;7.67;7.17;;;;;;;;;;5398086;26;20637;-86
2024/04/16 03:06:04;;;;;;;6.85;6.45;;;;;;;;;;5398152;26;20527;-87
2024/04/16 03:08:30;;;;;;;14.30;8.00;;;;;;;;;;5413411;26;20268;-86
2024/04/16 03:11:00;;;;;;;8.02;7.43;;;;;;;;;;5400305;26;20354;-86
2024/04/16 03:13:26;;;;;;;9.38;8.77;;;;;;;;;;5407771;26;20231;-88
2024/04/16 03:15:54;;;;;;;9.30;8.80;;;;;;;;;;5407051;26;20242;-90
2024/04/16 03:18:20;;;;;;;10.65;9.60;;;;;;;;;;5412505;26;20478;-88
2024/04/16 03:20:47;;;;;;;9.90;9.20;;;;;;;;;;5402540;26;20352;-89
2024/04/16 03:23:13;;;;;;;9.65;9.15;;;;;;;;;;5401219;26;20276;-90
2024/04/16 03:25:43;;;;;;;10.30;9.40;;;;;;;;;;5401680;26;20265;-91
2024/04/16 03:28:09;;;;;;;10.13;9.30;;;;;;;;;;5410750;26;20342;-89
2024/04/16 03:30:36;;;;;;;9.93;9.07;;;;;;;;;;5403914;26;20282;-88
2024/04/16 03:33:02;;;;;;;9.82;9.02;;;;;;;;;;5398475;26;20235;-89
2024/04/16 03:35:28;;;;;;;10.15;9.35;;;;;;;;;;5392869;26;20270;-90
2024/04/16 03:37:54;;;;;;;10.48;9.50;;;;;;;;;;5397035;26;20251;-92
2024/04/16 03:40:21;;;;;;;10.23;9.37;;;;;;;;;;5375739;26;20247;-94
2024/04/16 03:42:48;;;;;;;10.30;9.60;;;;;;;;;;5411556;26;20468;-92
2024/04/16 03:45:14;;;;;;;11.10;10.30;;;;;;;;;;5396587;26;20357;-88
2024/04/16 03:47:40;;;;;;;12.43;11.00;;;;;;;;;;5413654;26;20468;-83
2024/04/16 03:50:06;;;;;;;12.70;11.80;;;;;;;;;;5398848;26;20301;-84
2024/04/16 03:52:32;;;;;;;13.15;11.90;;;;;;;;;;5395770;26;20273;-83
2024/04/16 03:54:58;;;;;;;17.57;12.10;;;;;;;;;;5414562;26;20235;-82
2024/04/16 03:57:24;;;;;;;13.00;12.05;;;;;;;;;;5400199;26;20555;-83
2024/04/16 04:02:35;;;;;;;15.18;11.10;;;;;;;;;;5403614;26;20567;-84
2024/04/16 04:05:01;;;;;;;11.77;10.63;;;;;;;;;;5399667;26;20250;-84
2024/04/16 04:07:27;;;;;;;15.15;10.85;;;;;;;;;;5406987;26;20238;-86
2024/04/16 04:09:53;;;;;;;11.45;10.48;;;;;;;;;;5405237;26;20323;-85
2024/04/16 04:12:19;;;;;;;12.53;9.90;;;;;;;;;;5405771;26;20716;-85
2024/04/16 04:14:45;;;;;;;11.18;10.18;;;;;;;;;;5408552;26;20515;-86
2024/04/16 04:17:11;;;;;;;15.23;9.77;;;;;;;;;;5404684;26;20242;-86
2024/04/16 04:19:37;;;;;;;10.43;9.43;;;;;;;;;;5409664;26;20707;-84
2024/04/16 04:22:03;;;;;;;9.93;9.13;;;;;;;;;;5410756;26;20973;-86
2024/04/16 04:24:29;;;;;;;9.00;8.60;;;;;;;;;;5413171;26;20273;-86
2024/04/16 04:26:55;;;;;;;14.15;9.45;;;;;;;;;;5392748;26;20231;-86
2024/04/16 04:29:21;;;;;;;12.10;9.97;;;;;;;;;;5420266;26;20568;-84
2024/04/16 04:31:47;;;;;;;9.95;9.25;;;;;;;;;;5405714;26;20486;-84
2024/04/16 04:34:13;;;;;;;10.10;9.43;;;;;;;;;;5399191;26;20603;-85
2024/04/16 04:36:39;;;;;;;9.45;8.70;;;;;;;;;;5406442;26;20345;-85
2024/04/16 04:39:05;;;;;;;9.70;9.20;;;;;;;;;;5403940;26;20288;-84
2024/04/16 04:41:31;;;;;;;10.45;9.65;;;;;;;;;;5414842;26;20231;-85
2024/04/16 04:43:57;;;;;;;11.40;10.57;;;;;;;;;;5406564;26;20234;-84
2024/04/16 04:46:23;;;;;;;10.07;8.52;;;;;;;;;;5408065;26;20340;-82
2024/04/16 04:48:49;;;;;;;10.02;9.20;;;;;;;;;;5408892;26;20251;-83
2024/04/16 04:51:15;;;;;;;13.98;9.75;;;;;;;;;;5402775;26;20652;-83
2024/04/16 04:53:41;;;;;;;10.10;9.40;;;;;;;;;;5416635;26;20293;-83
2024/04/16 04:56:07;;;;;;;10.45;9.70;;;;;;;;;;5412157;26;20770;-83
2024/04/16 04:58:33;;;;;;;10.90;10.07;;;;;;;;;;5394377;26;20279;-82
2024/04/16 05:01:01;;;;;;;10.43;9.65;;;;;;;;;;5399932;26;20509;-84
2024/04/16 05:03:28;;;;;;;11.00;9.95;;;;;;;;;;5413197;26;20239;-82
2024/04/16 05:05:54;;;;;;;13.38;12.75;;;;;;;;;;5400317;26;20729;-84
2024/04/16 05:08:19;;;;;;;12.73;12.02;;;;;;;;;;5401500;26;20236;-84
2024/04/16 05:10:50;;;;;;;13.67;12.50;;;;;;;;;;5398195;26;20230;-86
2024/04/16 05:13:16;;;;;;;12.77;11.90;;;;;;;;;;5413133;26;20553;-84
2024/04/16 05:15:42;;;;;;;13.00;12.00;;;;;;;;;;5413819;26;20242;-84
2024/04/16 05:18:08;;;;;;;12.35;11.50;;;;;;;;;;5417516;26;20449;-84
2024/04/16 05:20:34;;;;;;;12.50;11.60;;;;;;;;;;5410498;26;20793;-84
2024/04/16 05:23:00;;;;;;;11.88;11.27;;;;;;;;;;5403463;26;20465;-84
2024/04/16 05:25:26;;;;;;;13.02;11.80;;;;;;;;;;5417116;26;20234;-84
2024/04/16 05:27:54;;;;;;;11.65;10.90;;;;;;;;;;5417811;26;20327;-86
2024/04/16 05:30:20;;;;;;;12.10;11.20;;;;;;;;;;5416406;26;20280;-82
2024/04/16 05:32:47;;;;;;;11.57;10.77;;;;;;;;;;5403927;26;20236;-81
2024/04/16 05:35:13;;;;;;;12.15;10.95;;;;;;;;;;5417105;26;20269;-83
2024/04/16 05:37:39;;;;;;;10.93;10.23;;;;;;;;;;5399170;26;20243;-82
2024/04/16 05:40:06;;;;;;;11.37;10.47;;;;;;;;;;5410357;26;20239;-84
2024/04/16 05:42:32;;;;;;;10.23;9.65;;;;;;;;;;5412923;26;20466;-82
2024/04/16 05:44:58;;;;;;;10.70;10.10;;;;;;;;;;5403914;26;20240;-83
2024/04/16 05:47:24;;;;;;;10.63;9.73;;;;;;;;;;5403784;26;21060;-83
2024/04/16 05:49:50;;;;;;;11.90;10.80;;;;;;;;;;5408791;26;20524;-85
2024/04/16 05:52:16;;;;;;;10.83;9.47;;;;;;;;;;5395219;26;20454;-86
2024/04/16 05:54:42;;;;;;;9.57;8.87;;;;;;;;;;5403879;26;20523;-86
2024/04/16 05:57:08;;;;;;;20.27;9.70;;;;;;;;;;5406454;26;20461;-83
2024/04/16 05:59:33;;;;;;;11.13;10.33;;;;;;;;;;5415875;26;20465;-83
2024/04/16 06:02:00;;;;;;;10.37;9.67;;;;;;;;;;5417048;26;20861;-85
2024/04/16 06:04:25;;;;;;;11.23;10.50;;;;;;;;;;5406138;26;20505;-85
2024/04/16 06:06:51;;;;;;;11.33;10.40;;;;;;;;;;5408301;26;20245;-84
2024/04/16 06:09:17;;;;;;;11.55;10.48;;;;;;;;;;5413779;26;21016;-85
2024/04/16 06:11:43;;;;;;;11.75;10.75;;;;;;;;;;5409838;26;20280;-84
2024/04/16 06:14:09;;;;;;;10.80;9.95;;;;;;;;;;5410438;26;20232;-84
2024/04/16 06:16:36;;;;;;;10.93;10.10;;;;;;;;;;5414997;26;20244;-84
2024/04/16 06:19:01;;;;;;;12.32;10.80;;;;;;;;;;5411447;26;20242;-84
2024/04/16 06:21:28;;;;;;;11.30;10.70;;;;;;;;;;5405162;26;20239;-84
2024/04/16 06:23:54;;;;;;;10.82;10.32;;;;;;;;;;5410818;26;20238;-84
2024/04/16 06:26:20;;;;;;;11.20;10.35;;;;;;;;;;5408099;26;20282;-83
2024/04/16 06:28:46;;;;;;;12.27;11.38;;;;;;;;;;5414466;26;20406;-83
2024/04/16 06:31:12;;;;;;;12.60;11.20;;;;;;;;;;5409707;26;20250;-83
2024/04/16 06:33:38;;;;;;;13.65;12.50;;;;;;;;;;5420089;26;20932;-84
2024/04/16 06:36:05;;;;;;;12.85;11.95;;;;;;;;;;5409666;26;20741;-82
2024/04/16 06:38:31;;;;;;;14.50;13.15;;;;;;;;;;5406828;26;20238;-81
2024/04/16 06:40:59;;;;;;;12.75;11.85;;;;;;;;;;5417652;26;20242;-82
2024/04/16 06:43:25;;;;;;;14.90;13.85;;;;;;;;;;5411439;26;20335;-84
2024/04/16 06:45:52;;;;;;;13.45;12.70;;;;;;;;;;5414928;26;20228;-82
2024/04/16 06:48:18;;;;;;;14.73;13.65;;;;;;;;;;5409373;26;20248;-85
2024/04/16 06:50:48;;;;;;;15.30;14.38;;;;;;;;;;5408432;26;20844;-83
2024/04/16 06:53:14;;;;;;;14.20;13.20;;;;;;;;;;5395866;26;20306;-83
2024/04/16 06:55:40;;;;;;;14.38;13.43;;;;;;;;;;5410541;26;20335;-84
2024/04/16 06:58:07;;;;;;;13.65;12.95;;;;;;;;;;5412063;26;20287;-82
2024/04/16 07:00:33;;;;;;;16.02;15.00;;;;;;;;;;5405436;26;20232;-83
2024/04/16 07:02:59;;;;;;;15.25;14.45;;;;;;;;;;5408067;26;20292;-83
2024/04/16 07:05:24;;;;;;;14.53;13.63;;;;;;;;;;5412479;26;20241;-85
2024/04/16 07:07:50;;;;;;;14.17;13.40;;;;;;;;;;5409650;26;20578;-84
2024/04/16 07:10:17;;;;;;;11.70;11.10;;;;;;;;;;5410485;26;20522;-83
2024/04/16 07:12:43;;;;;;;16.10;14.95;;;;;;;;;;5408483;26;20304;-83
2024/04/16 07:15:09;;;;;;;14.63;13.85;;;;;;;;;;5397425;26;20319;-87
2024/04/16 07:17:35;;;;;;;14.93;14.13;;;;;;;;;;5412923;26;20286;-87
2024/04/16 07:20:01;;;;;;;13.82;13.15;;;;;;;;;;5408873;26;20243;-87
2024/04/16 07:22:29;;;;;;;13.40;12.65;;;;;;;;;;5416076;26;20232;-84
2024/04/16 07:24:56;;;;;;;13.75;12.95;;;;;;;;;;5400943;26;20353;-83
2024/04/16 07:27:22;;;;;;;13.73;12.93;;;;;;;;;;5407514;26;20352;-81
2024/04/16 07:29:48;;;;;;;12.90;12.40;;;;;;;;;;5406670;26;20395;-84
2024/04/16 07:32:14;;;;;;;13.82;12.73;;;;;;;;;;5411845;26;20606;-83
2024/04/16 07:34:40;;;;;;;13.60;12.90;;;;;;;;;;5410720;26;20244;-83
2024/04/16 07:37:06;;;;;;;12.48;11.90;;;;;;;;;;5414570;26;20335;-83
2024/04/16 07:39:32;;;;;;;13.20;12.40;;;;;;;;;;5421174;26;20237;-83
2024/04/16 07:41:58;;;;;;;13.32;12.63;;;;;;;;;;5407697;26;20519;-82
2024/04/16 07:44:24;;;;;;;14.10;13.10;;;;;;;;;;5402550;26;20245;-84
2024/04/16 07:46:50;;;;;;;12.10;11.50;;;;;;;;;;5424326;26;20256;-81
2024/04/16 07:49:16;;;;;;;13.20;12.50;;;;;;;;;;5410675;26;20675;-83
2024/04/16 07:51:42;;;;;;;13.27;12.57;;;;;;;;;;5402589;26;20456;-82
2024/04/16 07:54:08;;;;;;;12.25;11.48;;;;;;;;;;5398489;26;20462;-79
2024/04/16 07:56:34;;;;;;;13.13;12.53;;;;;;;;;;5418105;26;20326;-79
2024/04/16 07:59:00;;;;;;;12.73;11.65;;;;;;;;;;5411431;26;20460;-78
2024/04/16 08:01:26;;;;;;;12.83;12.10;;;;;;;;;;5405106;26;20270;-81
2024/04/16 08:03:52;;;;;;;13.67;12.97;;;;;;;;;;5414254;26;20460;-79
2024/04/16 08:06:18;;;;;;;14.30;13.00;;;;;;;;;;5410422;26;20440;-79
2024/04/16 08:08:44;;;;;;;12.40;11.80;;;;;;;;;;5412385;26;20241;-82
2024/04/16 08:11:10;;;;;;;12.63;11.83;;;;;;;;;;5402851;26;20352;-80
2024/04/16 08:13:37;;;;;;;13.65;12.25;;;;;;;;;;5409431;26;20461;-82
2024/04/16 08:16:04;;;;;;;13.00;12.30;;;;;;;;;;5403576;26;20569;-82
2024/04/16 08:18:30;;;;;;;12.10;11.50;;;;;;;;;;5414225;26;20273;-83
2024/04/16 08:20:56;;;;;;;13.18;12.40;;;;;;;;;;5408003;26;20235;-84
2024/04/16 08:23:22;;;;;;;11.70;11.10;;;;;;;;;;5398164;26;20227;-80
2024/04/16 08:25:57;;;;;;;12.43;11.70;;;;;;;;;;5400318;26;20277;-84
2024/04/16 08:28:23;;;;;;;12.27;11.65;;;;;;;;;;5420242;26;20290;-81
2024/04/16 08:30:52;;;;;;;14.17;13.17;;;;;;;;;;5408588;26;20285;-83
2024/04/16 08:33:20;;;;;;;13.93;13.10;;;;;;;;;;5418523;26;20464;-84
2024/04/16 08:35:46;;;;;;;14.70;13.80;;;;;;;;;;5417740;26;20343;-85
2024/04/16 08:38:12;;;;;;;14.13;13.23;;;;;;;;;;5412574;26;20281;-83
2024/04/16 08:40:39;;;;;;;15.13;14.15;;;;;;;;;;5413153;26;20641;-83
2024/04/16 08:43:05;;;;;;;15.85;14.45;;;;;;;;;;5401758;26;20235;-83
2024/04/16 08:45:31;;;;;;;14.80;13.80;;;;;;;;;;5415214;26;20607;-83
2024/04/16 08:47:58;;;;;;;15.30;14.30;;;;;;;;;;5420834;26;20290;-82
2024/04/16 08:50:25;;;;;;;15.05;13.93;;;;;;;;;;5397547;26;20285;-83
2024/04/16 08:52:52;;;;;;;14.65;13.73;;;;;;;;;;5410550;26;20238;-84
2024/04/16 08:55:19;;;;;;;14.55;13.55;;;;;;;;;;5412403;26;20571;-83
2024/04/16 08:57:45;;;;;;;15.10;14.20;;;;;;;;;;5411424;26;20261;-82
2024/04/16 09:00:11;;;;;;;13.70;12.93;;;;;;;;;;5405941;26;20246;-84
2024/04/16 09:02:38;;;;;;;15.30;14.00;;;;;;;;;;5403696;26;20636;-81
2024/04/16 09:05:04;;;;;;;13.20;12.40;;;;;;;;;;5394498;26;20703;-83
2024/04/16 09:07:33;;;;;;;14.20;13.18;;;;;;;;;;5410609;26;20246;-82
2024/04/16 09:09:59;;;;;;;13.80;12.82;;;;;;;;;;5414913;26;20645;-82
2024/04/16 09:12:25;;;;;;;13.80;12.80;;;;;;;;;;5415530;26;20238;-82
2024/04/16 09:14:51;;;;;;;13.10;12.30;;;;;;;;;;5413590;26;20277;-81
2024/04/16 09:17:16;;;;;;;14.33;13.30;;;;;;;;;;5415296;26;20464;-83
2024/04/16 09:19:43;;;;;;;12.97;12.07;;;;;;;;;;5403247;26;20522;-82
2024/04/16 09:22:09;;;;;;;13.52;12.35;;;;;;;;;;5411213;26;20517;-82
2024/04/16 09:24:35;;;;;;;13.77;12.38;;;;;;;;;;5403650;26;20244;-83
2024/04/16 09:27:07;;;;;;;13.13;12.13;;;;;;;;;;5411046;26;20310;-83
2024/04/16 09:29:34;;;;;;;14.30;13.23;;;;;;;;;;5407710;26;20498;-85
2024/04/16 09:32:01;;;;;;;15.02;13.82;;;;;;;;;;5399669;26;20327;-82
2024/04/16 09:34:27;;;;;;;11.02;10.32;;;;;;;;;;5404831;26;20300;-84
2024/04/16 09:36:53;;;;;;;12.47;11.30;;;;;;;;;;5406829;26;20331;-82
2024/04/16 09:39:23;;;;;;;14.40;12.98;;;;;;;;;;5403515;26;20509;-83
2024/04/16 09:41:49;;;;;;;10.93;10.13;;;;;;;;;;5408050;26;20292;-83
2024/04/16 09:44:16;;;;;;;12.45;11.13;;;;;;;;;;5406019;26;20243;-85
2024/04/16 09:46:44;;;;;;;10.63;9.77;;;;;;;;;;5397391;26;20337;-82
2024/04/16 09:55:22;;;;;;;10.70;10.00;;;;;;;;;;5398806;26;20681;-83
2024/04/16 09:57:48;;;;;;;10.13;9.48;;;;;;;;;;5404285;26;21291;-84
2024/04/16 10:00:15;;;;;;;10.52;9.68;;;;;;;;;;5410587;26;20247;-83
2024/04/16 10:02:42;;;;;;;9.00;8.50;;;;;;;;;;5408699;26;20239;-81
2024/04/16 10:08:12;;;;;;;11.68;10.65;;;;;;;;;;5403195;26;20274;-84
2024/04/16 10:10:38;;;;;;;10.70;10.03;;;;;;;;;;5418667;26;20234;-86
2024/04/16 10:13:04;;;;;;;10.88;10.07;;;;;;;;;;5414866;26;20474;-83
2024/04/16 10:15:30;;;;;;;10.85;10.20;;;;;;;;;;5404735;26;20227;-85
2024/04/16 10:17:57;;;;;;;10.60;10.07;;;;;;;;;;5409760;26;20238;-83
2024/04/16 10:23:29;;;;;;;9.82;9.20;;;;;;;;;;5410031;26;20274;-80
2024/04/16 10:25:57;;;;;;;11.32;10.63;;;;;;;;;;5416367;26;20278;-84
2024/04/16 10:28:28;;;;;;;11.20;10.35;;;;;;;;;;5402275;26;20239;-84
2024/04/16 10:31:04;;;;;;;10.77;10.18;;;;;;;;;;5409000;26;20622;-85
2024/04/16 10:37:20;;;;;;;9.55;8.65;;;;;;;;;;5398827;26;20297;-85
2024/04/16 10:39:56;;;;;;;8.93;8.50;;;;;;;;;;5408744;26;20594;-84
2024/04/16 10:42:27;;;;;;;9.00;8.50;;;;;;;;;;5408181;26;20343;-83
2024/04/16 10:44:53;;;;;;;12.68;8.40;;;;;;;;;;5403485;26;20538;-83
2024/04/16 10:47:19;;;;;;;9.88;9.27;;;;;;;;;;5411282;26;20289;-84
2024/04/16 10:49:45;;;;;;;8.48;7.97;;;;;;;;;;5404055;26;20242;-83
2024/04/16 10:52:12;;;;;;;8.33;7.70;;;;;;;;;;5415429;26;20292;-84
2024/04/16 10:54:38;;;;;;;9.75;8.98;;;;;;;;;;5408009;26;20920;-87
2024/04/16 10:57:04;;;;;;;8.38;7.97;;;;;;;;;;5404223;26;20357;-81
2024/04/16 10:59:30;;;;;;;8.27;7.53;;;;;;;;;;5409099;26;20292;-85
2024/04/16 11:01:56;;;;;;;7.72;7.20;;;;;;;;;;5409215;26;20240;-85
2024/04/16 11:04:22;;;;;;;9.03;8.20;;;;;;;;;;5411932;26;20322;-86
2024/04/16 11:06:48;;;;;;;8.57;7.97;;;;;;;;;;5399966;26;20473;-85
2024/04/16 11:09:15;;;;;;;8.60;8.07;;;;;;;;;;5393408;26;20280;-85
2024/04/16 11:11:42;;;;;;;7.40;6.90;;;;;;;;;;5399214;26;20477;-87
2024/04/16 11:14:08;;;;;;;9.68;7.75;;;;;;;;;;5407553;26;20842;-85
2024/04/16 11:16:34;;;;;;;7.23;6.73;;;;;;;;;;5409856;26;20243;-84
2024/04/16 11:19:00;;;;;;;6.90;6.30;;;;;;;;;;5411890;26;20990;-82
2024/04/16 11:21:32;;;;;;;8.82;7.97;;;;;;;;;;5411768;26;20650;-83
2024/04/16 11:23:58;;;;;;;7.95;7.35;;;;;;;;;;5391616;26;20785;-83
2024/04/16 11:26:24;;;;;;;8.15;7.65;;;;;;;;;;5413684;26;20282;-83
2024/04/16 11:28:50;;;;;;;8.60;8.10;;;;;;;;;;5412030;26;20238;-81
2024/04/16 11:31:20;;;;;;;8.80;8.30;;;;;;;;;;5413845;26;20746;-85
2024/04/16 11:33:46;;;;;;;9.63;8.68;;;;;;;;;;5411109;26;20285;-84
2024/04/16 11:36:12;;;;;;;8.40;7.80;;;;;;;;;;5419648;26;20246;-84
2024/04/16 11:38:42;;;;;;;8.05;7.45;;;;;;;;;;5402736;26;20243;-84
2024/04/16 11:41:08;;;;;;;8.35;7.68;;;;;;;;;;5410056;26;20282;-84
2024/04/16 11:43:34;;;;;;;9.10;8.30;;;;;;;;;;5405934;26;20558;-83
2024/04/16 11:46:03;;;;;;;8.77;8.38;;;;;;;;;;5414065;26;20306;-84
2024/04/16 11:48:30;;;;;;;11.40;10.65;;;;;;;;;;5412978;26;20576;-81
2024/04/16 11:50:56;;;;;;;13.65;10.50;;;;;;;;;;5405108;26;20302;-82
2024/04/16 11:53:22;;;;;;;11.95;11.25;;;;;;;;;;5413484;26;20569;-81
2024/04/16 11:55:48;;;;;;;12.30;11.80;;;;;;;;;;5411724;26;20235;-83
2024/04/16 11:58:14;;;;;;;12.60;12.05;;;;;;;;;;5402766;26;20297;-80
2024/04/16 12:00:40;;;;;;;15.40;14.60;;;;;;;;;;5398966;26;20235;-81
2024/04/16 12:03:09;;;;;;;13.65;13.05;;;;;;;;;;5401019;26;20530;-80
2024/04/16 12:05:35;;;;;;;15.48;14.40;;;;;;;;;;5408147;26;20286;-80
2024/04/16 12:08:01;;;;;;;15.35;14.50;;;;;;;;;;5411709;26;20282;-82
2024/04/16 12:10:27;;;;;;;14.48;13.70;;;;;;;;;;5408631;26;20287;-82
2024/04/16 12:12:54;;;;;;;14.45;13.75;;;;;;;;;;5408808;26;20753;-81
2024/04/16 12:15:20;;;;;;;14.73;13.52;;;;;;;;;;5416509;26;20286;-81
2024/04/16 12:17:46;;;;;;;14.25;13.25;;;;;;;;;;5409740;26;20289;-81
2024/04/16 12:20:12;;;;;;;13.88;13.02;;;;;;;;;;5403918;26;20242;-82
2024/04/16 12:22:38;;;;;;;14.82;13.85;;;;;;;;;;5404368;26;20290;-83
2024/04/16 12:25:04;;;;;;;13.00;12.23;;;;;;;;;;5404934;26;20719;-80
2024/04/16 12:27:30;;;;;;;16.60;15.80;;;;;;;;;;5417167;26;20603;-81
2024/04/16 12:29:56;;;;;;;14.40;13.50;;;;;;;;;;5400865;26;20243;-81
2024/04/16 12:32:23;;;;;;;12.30;11.70;;;;;;;;;;5403939;26;20583;-81
2024/04/16 12:34:49;;;;;;;14.77;13.65;;;;;;;;;;5413112;26;20314;-81
2024/04/16 12:37:15;;;;;;;14.10;12.88;;;;;;;;;;5399815;26;20227;-82
2024/04/16 12:39:41;;;;;;;12.35;11.55;;;;;;;;;;5409627;26;20236;-81
2024/04/16 12:42:07;;;;;;;15.30;14.40;;;;;;;;;;5408858;26;20410;-81
2024/04/16 12:44:33;;;;;;;15.30;14.02;;;;;;;;;;5415838;26;20456;-80
2024/04/16 12:46:59;;;;;;;12.97;12.07;;;;;;;;;;5401661;26;20240;-81
2024/04/16 12:49:26;;;;;;;13.43;12.52;;;;;;;;;;5407796;26;20545;-81
2024/04/16 12:51:52;;;;;;;13.35;12.55;;;;;;;;;;5404633;26;20322;-83
2024/04/16 12:54:19;;;;;;;13.32;12.50;;;;;;;;;;5399794;26;20283;-80
2024/04/16 12:56:46;;;;;;;13.38;12.48;;;;;;;;;;5408537;26;20246;-82
2024/04/16 12:59:12;;;;;;;14.05;10.10;;;;;;;;;;5411702;26;20246;-83
2024/04/16 13:01:37;;;;;;;11.70;11.00;;;;;;;;;;5414974;26;20281;-80
2024/04/16 13:04:04;;;;;;;16.35;10.45;;;;;;;;;;5411289;26;20539;-81
2024/04/16 13:06:29;;;;;;;11.65;10.85;;;;;;;;;;5418599;26;20247;-82
2024/04/16 13:08:56;;;;;;;11.37;10.67;;;;;;;;;;5399652;26;20685;-80
2024/04/16 13:11:22;;;;;;;12.32;11.30;;;;;;;;;;5400705;26;20523;-83
2024/04/16 13:13:51;;;;;;;11.27;10.35;;;;;;;;;;5409033;26;20392;-81
2024/04/16 13:16:17;;;;;;;12.55;11.55;;;;;;;;;;5406976;26;20281;-80
2024/04/16 13:24:51;;;;;;;10.18;9.68;;;;;;;;;;5407748;26;20347;-81
2024/04/16 13:27:17;;;;;;;11.00;10.30;;;;;;;;;;5408191;26;20240;-83
2024/04/16 13:29:43;;;;;;;11.10;10.60;;;;;;;;;;5397874;26;20247;-83
2024/04/16 13:32:09;;;;;;;10.60;10.00;;;;;;;;;;5407864;26;20474;-81
2024/04/16 13:37:55;;;;;;;8.43;8.02;;;;;;;;;;5390627;26;20521;-82
2024/04/16 13:40:22;;;;;;;8.80;8.30;;;;;;;;;;5412324;26;20236;-83
2024/04/16 13:42:48;;;;;;;9.15;8.68;;;;;;;;;;5406390;26;20292;-80
2024/04/16 13:45:14;;;;;;;8.50;8.10;;;;;;;;;;5398609;26;20231;-80
2024/04/16 13:47:40;;;;;;;9.03;8.53;;;;;;;;;;5413940;26;20316;-83
2024/04/16 13:53:10;;;;;;;7.90;7.50;;;;;;;;;;5410695;26;21061;-82
2024/04/16 13:55:36;;;;;;;8.43;8.02;;;;;;;;;;5403506;26;20344;-83
2024/04/16 13:58:03;;;;;;;8.20;7.90;;;;;;;;;;5405331;26;20282;-83
2024/04/16 14:00:29;;;;;;;7.40;7.10;;;;;;;;;;5404293;26;20873;-81
2024/04/16 14:09:03;;;;;;;8.10;7.60;;;;;;;;;;5410210;26;20348;-83
2024/04/16 14:11:29;;;;;;;8.90;8.27;;;;;;;;;;5410929;26;20293;-84
2024/04/16 14:13:55;;;;;;;8.83;8.43;;;;;;;;;;5416956;26;20234;-83
2024/04/16 14:16:22;;;;;;;7.40;7.10;;;;;;;;;;5417048;26;20515;-83
2024/04/16 14:18:50;;;;;;;8.20;7.80;;;;;;;;;;5407775;26;20462;-83
2024/04/16 14:21:16;;;;;;;9.60;8.50;;;;;;;;;;5406243;26;20291;-83
2024/04/16 14:23:42;;;;;;;13.03;12.43;;;;;;;;;;5412053;26;20307;-82
2024/04/16 14:26:08;;;;;;;14.25;13.65;;;;;;;;;;5410762;26;20866;-83
2024/04/16 14:28:34;;;;;;;14.25;13.65;;;;;;;;;;5419991;26;20250;-83
2024/04/16 14:31:00;;;;;;;14.23;13.43;;;;;;;;;;5397578;26;20336;-82
2024/04/16 14:33:26;;;;;;;13.50;12.80;;;;;;;;;;5416815;26;20688;-82
2024/04/16 14:35:52;;;;;;;13.30;12.80;;;;;;;;;;5422469;26;20932;-82
2024/04/16 14:38:18;;;;;;;13.70;12.90;;;;;;;;;;5402958;26;20537;-82
2024/04/16 14:40:44;;;;;;;14.20;13.40;;;;;;;;;;5416959;26;20996;-81
2024/04/16 14:43:10;;;;;;;14.07;13.37;;;;;;;;;;5406770;26;20792;-82
2024/04/16 14:45:36;;;;;;;14.63;13.50;;;;;;;;;;5406499;26;20808;-82
2024/04/16 14:48:02;;;;;;;15.18;14.38;;;;;;;;;;5408706;26;20469;-81
2024/04/16 14:50:28;;;;;;;14.23;13.32;;;;;;;;;;5426548;26;20273;-79
2024/04/16 14:52:55;;;;;;;14.10;13.35;;;;;;;;;;5411991;26;20335;-79
2024/04/16 14:55:21;;;;;;;13.60;12.80;;;;;;;;;;5402856;26;20243;-81
2024/04/16 14:57:47;;;;;;;13.50;12.80;;;;;;;;;;5417031;26;20567;-79
2024/04/16 15:00:13;;;;;;;13.40;12.20;;;;;;;;;;5391328;26;20551;-79
2024/04/16 15:02:40;;;;;;;12.98;12.20;;;;;;;;;;5402363;26;20462;-80